sensor_id;sensor_type;location;lat;lon;timestamp;pressure;altitude;pressure_sealevel;temperature;humidity
28344;BME280;15597;50.914;6.638;2024-01-30T00:01:36;101969.34;;;11.13;58.28
28344;BME280;15597;50.914;6.638;2024-01-30T00:04:02;101969.34;;;11.11;58.47
28344;BME280;15597;50.914;6.638;2024-01-30T00:06:28;101965.00;;;11.10;58.51
28344;BME280;15597;50.914;6.638;2024-01-30T00:08:53;101965.84;;;11.07;58.56
28344;BME280;15597;50.914;6.638;2024-01-30T00:11:19;101967.59;;;11.05;58.56
28344;BME280;15597;50.914;6.638;2024-01-30T00:13:44;101964.13;;;11.05;58.84
28344;BME280;15597;50.914;6.638;2024-01-30T00:16:23;101958.03;;;11.00;58.63
28344;BME280;15597;50.914;6.638;2024-01-30T00:18:52;101958.03;;;11.00;58.69
28344;BME280;15597;50.914;6.638;2024-01-30T00:21:18;101954.53;;;11.01;58.72
28344;BME280;15597;50.914;6.638;2024-01-30T00:23:44;101950.16;;;11.03;59.05
28344;BME280;15597;50.914;6.638;2024-01-30T00:26:09;101953.63;;;11.03;58.50
28344;BME280;15597;50.914;6.638;2024-01-30T00:28:35;101961.50;;;11.05;58.42
28344;BME280;15597;50.914;6.638;2024-01-30T00:31:00;101955.41;;;11.06;58.86
28344;BME280;15597;50.914;6.638;2024-01-30T00:33:26;101949.28;;;11.07;58.52
28344;BME280;15597;50.914;6.638;2024-01-30T00:35:52;101954.53;;;11.07;58.41
28344;BME280;15597;50.914;6.638;2024-01-30T00:38:17;101949.28;;;11.05;58.48
28344;BME280;15597;50.914;6.638;2024-01-30T00:40:43;101950.16;;;11.04;58.83
28344;BME280;15597;50.914;6.638;2024-01-30T00:43:08;101953.66;;;11.05;58.86
28344;BME280;15597;50.914;6.638;2024-01-30T00:45:34;101951.03;;;11.05;58.86
28344;BME280;15597;50.914;6.638;2024-01-30T00:47:59;101946.66;;;11.05;58.70
28344;BME280;15597;50.914;6.638;2024-01-30T00:50:25;101954.53;;;11.04;58.59
28344;BME280;15597;50.914;6.638;2024-01-30T00:52:50;101944.03;;;11.02;58.46
28344;BME280;15597;50.914;6.638;2024-01-30T00:55:15;101952.78;;;11.01;58.82
28344;BME280;15597;50.914;6.638;2024-01-30T00:57:41;101949.28;;;10.99;58.66
28344;BME280;15597;50.914;6.638;2024-01-30T01:00:07;101949.31;;;10.98;59.18
28344;BME280;15597;50.914;6.638;2024-01-30T01:02:35;101944.06;;;10.98;58.71
28344;BME280;15597;50.914;6.638;2024-01-30T01:05:01;101945.78;;;10.97;59.08
28344;BME280;15597;50.914;6.638;2024-01-30T01:07:27;101948.41;;;10.97;58.69
28344;BME280;15597;50.914;6.638;2024-01-30T01:09:52;101947.56;;;10.96;58.83
28344;BME280;15597;50.914;6.638;2024-01-30T01:12:18;101943.19;;;10.95;58.68
28344;BME280;15597;50.914;6.638;2024-01-30T01:14:43;101946.69;;;10.91;58.87
28344;BME280;15597;50.914;6.638;2024-01-30T01:17:09;101943.19;;;10.92;59.27
28344;BME280;15597;50.914;6.638;2024-01-30T01:19:34;101949.31;;;10.91;59.11
28344;BME280;15597;50.914;6.638;2024-01-30T01:22:00;101938.84;;;10.88;58.62
28344;BME280;15597;50.914;6.638;2024-01-30T01:24:26;101944.06;;;10.88;59.06
28344;BME280;15597;50.914;6.638;2024-01-30T01:26:51;101952.81;;;10.87;58.73
28344;BME280;15597;50.914;6.638;2024-01-30T01:29:17;101958.03;;;10.87;59.23
28344;BME280;15597;50.914;6.638;2024-01-30T01:31:42;101951.94;;;10.88;58.83
28344;BME280;15597;50.914;6.638;2024-01-30T01:34:12;101956.28;;;10.89;58.70
28344;BME280;15597;50.914;6.638;2024-01-30T01:36:39;101956.28;;;10.91;59.09
28344;BME280;15597;50.914;6.638;2024-01-30T01:39:04;101941.44;;;10.90;58.97
28344;BME280;15597;50.914;6.638;2024-01-30T01:41:33;101948.44;;;10.92;59.07
28344;BME280;15597;50.914;6.638;2024-01-30T01:43:59;101937.94;;;10.94;59.00
28344;BME280;15597;50.914;6.638;2024-01-30T01:46:30;101937.97;;;10.92;58.67
28344;BME280;15597;50.914;6.638;2024-01-30T01:48:56;101937.09;;;10.93;58.71
28344;BME280;15597;50.914;6.638;2024-01-30T01:51:24;101940.56;;;10.92;58.91
28344;BME280;15597;50.914;6.638;2024-01-30T01:53:53;101935.34;;;10.92;58.50
28344;BME280;15597;50.914;6.638;2024-01-30T01:56:19;101942.31;;;10.93;58.67
28344;BME280;15597;50.914;6.638;2024-01-30T01:58:46;101944.06;;;10.93;58.76
28344;BME280;15597;50.914;6.638;2024-01-30T02:01:13;101948.41;;;10.94;58.92
28344;BME280;15597;50.914;6.638;2024-01-30T02:03:39;101938.81;;;10.94;58.44
28344;BME280;15597;50.914;6.638;2024-01-30T02:06:06;101944.06;;;10.94;58.44
28344;BME280;15597;50.914;6.638;2024-01-30T02:08:32;101942.31;;;10.93;58.48
28344;BME280;15597;50.914;6.638;2024-01-30T02:10:59;101937.09;;;10.93;58.81
28344;BME280;15597;50.914;6.638;2024-01-30T02:13:25;101930.09;;;10.92;58.91
28344;BME280;15597;50.914;6.638;2024-01-30T02:15:53;101930.97;;;10.91;58.67
28344;BME280;15597;50.914;6.638;2024-01-30T02:18:19;101930.09;;;10.92;58.91
28344;BME280;15597;50.914;6.638;2024-01-30T02:21:04;101924.88;;;10.89;58.68
28344;BME280;15597;50.914;6.638;2024-01-30T02:23:30;101921.38;;;10.90;58.92
28344;BME280;15597;50.914;6.638;2024-01-30T02:25:57;101924.88;;;10.89;59.10
28344;BME280;15597;50.914;6.638;2024-01-30T02:28:23;101917.00;;;10.92;58.49
28344;BME280;15597;50.914;6.638;2024-01-30T02:30:48;101915.25;;;10.93;58.78
28344;BME280;15597;50.914;6.638;2024-01-30T02:33:14;101919.63;;;10.95;58.86
28344;BME280;15597;50.914;6.638;2024-01-30T02:35:39;101916.97;;;10.97;58.39
28344;BME280;15597;50.914;6.638;2024-01-30T02:38:05;101915.25;;;10.98;58.17
28344;BME280;15597;50.914;6.638;2024-01-30T02:40:31;101910.00;;;10.98;58.63
28344;BME280;15597;50.914;6.638;2024-01-30T02:42:59;101912.63;;;10.96;58.57
28344;BME280;15597;50.914;6.638;2024-01-30T02:45:25;101908.28;;;10.93;58.88
28344;BME280;15597;50.914;6.638;2024-01-30T02:47:50;101902.16;;;10.93;58.68
28344;BME280;15597;50.914;6.638;2024-01-30T02:50:16;101904.78;;;10.91;58.36
28344;BME280;15597;50.914;6.638;2024-01-30T02:52:42;101902.16;;;10.90;58.80
28344;BME280;15597;50.914;6.638;2024-01-30T02:55:09;101903.91;;;10.89;58.49
28344;BME280;15597;50.914;6.638;2024-01-30T02:57:35;101901.28;;;10.88;58.72
28344;BME280;15597;50.914;6.638;2024-01-30T03:00:00;101900.44;;;10.84;59.12
28344;BME280;15597;50.914;6.638;2024-01-30T03:02:26;101900.44;;;10.84;59.19
28344;BME280;15597;50.914;6.638;2024-01-30T03:04:52;101899.56;;;10.82;58.54
28344;BME280;15597;50.914;6.638;2024-01-30T03:07:17;101900.44;;;10.81;59.09
28344;BME280;15597;50.914;6.638;2024-01-30T03:09:43;101897.81;;;10.79;58.99
28344;BME280;15597;50.914;6.638;2024-01-30T03:12:09;101902.19;;;10.79;59.09
28344;BME280;15597;50.914;6.638;2024-01-30T03:14:35;101897.81;;;10.76;58.70
28344;BME280;15597;50.914;6.638;2024-01-30T03:17:00;101899.59;;;10.76;58.68
28344;BME280;15597;50.914;6.638;2024-01-30T03:19:26;101902.19;;;10.76;59.09
28344;BME280;15597;50.914;6.638;2024-01-30T03:21:52;101901.31;;;10.74;58.70
28344;BME280;15597;50.914;6.638;2024-01-30T03:24:17;101898.72;;;10.74;58.73
28344;BME280;15597;50.914;6.638;2024-01-30T03:26:43;101893.47;;;10.74;59.16
28344;BME280;15597;50.914;6.638;2024-01-30T03:29:09;101896.06;;;10.75;59.07
28344;BME280;15597;50.914;6.638;2024-01-30T03:31:35;101895.22;;;10.78;59.22
28344;BME280;15597;50.914;6.638;2024-01-30T03:34:01;101896.06;;;10.78;59.31
28344;BME280;15597;50.914;6.638;2024-01-30T03:36:27;101895.22;;;10.78;59.13
28344;BME280;15597;50.914;6.638;2024-01-30T03:38:52;101889.97;;;10.78;59.10
28344;BME280;15597;50.914;6.638;2024-01-30T03:41:18;101889.09;;;10.77;59.17
28344;BME280;15597;50.914;6.638;2024-01-30T03:43:44;101889.09;;;10.77;59.41
28344;BME280;15597;50.914;6.638;2024-01-30T03:46:11;101887.38;;;10.75;58.71
28344;BME280;15597;50.914;6.638;2024-01-30T03:48:37;101879.50;;;10.75;58.82
28344;BME280;15597;50.914;6.638;2024-01-30T03:51:02;101882.13;;;10.73;58.67
28344;BME280;15597;50.914;6.638;2024-01-30T03:53:28;101881.25;;;10.76;59.03
28344;BME280;15597;50.914;6.638;2024-01-30T03:55:54;101877.75;;;10.75;58.99
28344;BME280;15597;50.914;6.638;2024-01-30T03:58:19;101886.50;;;10.76;58.66
28344;BME280;15597;50.914;6.638;2024-01-30T04:00:45;101880.38;;;10.77;59.10
28344;BME280;15597;50.914;6.638;2024-01-30T04:03:10;101882.13;;;10.78;58.76
28344;BME280;15597;50.914;6.638;2024-01-30T04:05:36;101879.47;;;10.79;59.19
28344;BME280;15597;50.914;6.638;2024-01-30T04:08:01;101877.75;;;10.80;58.89
28344;BME280;15597;50.914;6.638;2024-01-30T04:10:27;101877.75;;;10.80;58.61
28344;BME280;15597;50.914;6.638;2024-01-30T04:12:52;101877.75;;;10.80;58.86
28344;BME280;15597;50.914;6.638;2024-01-30T04:15:19;101876.84;;;10.82;58.87
28344;BME280;15597;50.914;6.638;2024-01-30T04:17:45;101872.50;;;10.83;58.46
28344;BME280;15597;50.914;6.638;2024-01-30T04:20:14;101872.50;;;10.80;58.63
28344;BME280;15597;50.914;6.638;2024-01-30T04:22:44;101876.00;;;10.79;58.91
28344;BME280;15597;50.914;6.638;2024-01-30T04:25:10;101872.53;;;10.77;58.92
28344;BME280;15597;50.914;6.638;2024-01-30T04:27:36;101868.16;;;10.73;58.93
28344;BME280;15597;50.914;6.638;2024-01-30T04:30:02;101872.53;;;10.68;59.29
28344;BME280;15597;50.914;6.638;2024-01-30T04:32:27;101869.91;;;10.66;58.99
28344;BME280;15597;50.914;6.638;2024-01-30T04:34:53;101876.03;;;10.60;59.63
28344;BME280;15597;50.914;6.638;2024-01-30T04:37:19;101870.78;;;10.57;59.51
28344;BME280;15597;50.914;6.638;2024-01-30T04:39:44;101877.75;;;10.55;59.39
28344;BME280;15597;50.914;6.638;2024-01-30T04:42:09;101869.03;;;10.50;59.45
28344;BME280;15597;50.914;6.638;2024-01-30T04:44:35;101873.41;;;10.48;59.37
28344;BME280;15597;50.914;6.638;2024-01-30T04:47:00;101879.50;;;10.47;59.79
28344;BME280;15597;50.914;6.638;2024-01-30T04:49:27;101869.91;;;10.46;60.10
28344;BME280;15597;50.914;6.638;2024-01-30T04:51:52;101869.03;;;10.47;60.06
28344;BME280;15597;50.914;6.638;2024-01-30T04:54:18;101862.94;;;10.45;59.76
28344;BME280;15597;50.914;6.638;2024-01-30T04:56:44;101854.22;;;10.44;59.89
28344;BME280;15597;50.914;6.638;2024-01-30T04:59:09;101861.19;;;10.44;59.66
28344;BME280;15597;50.914;6.638;2024-01-30T05:01:35;101871.69;;;10.45;59.94
28344;BME280;15597;50.914;6.638;2024-01-30T05:04:00;101865.56;;;10.45;59.92
28344;BME280;15597;50.914;6.638;2024-01-30T05:06:26;101863.81;;;10.44;59.71
28344;BME280;15597;50.914;6.638;2024-01-30T05:08:52;101871.69;;;10.45;59.70
28344;BME280;15597;50.914;6.638;2024-01-30T05:11:18;101867.28;;;10.46;60.03
28344;BME280;15597;50.914;6.638;2024-01-30T05:13:44;101869.03;;;10.44;59.68
28344;BME280;15597;50.914;6.638;2024-01-30T05:16:09;101864.69;;;10.41;59.68
28344;BME280;15597;50.914;6.638;2024-01-30T05:18:35;101858.56;;;10.41;60.09
28344;BME280;15597;50.914;6.638;2024-01-30T05:21:02;101862.06;;;10.40;60.29
28344;BME280;15597;50.914;6.638;2024-01-30T05:23:28;101850.72;;;10.39;59.76
28344;BME280;15597;50.914;6.638;2024-01-30T05:25:53;101855.06;;;10.38;59.91
28344;BME280;15597;50.914;6.638;2024-01-30T05:28:19;101860.31;;;10.37;59.95
28344;BME280;15597;50.914;6.638;2024-01-30T05:30:44;101855.06;;;10.35;59.94
28344;BME280;15597;50.914;6.638;2024-01-30T05:33:10;101861.16;;;10.34;60.19
28344;BME280;15597;50.914;6.638;2024-01-30T05:35:37;101853.31;;;10.34;60.55
28344;BME280;15597;50.914;6.638;2024-01-30T05:38:03;101853.31;;;10.34;60.08
28344;BME280;15597;50.914;6.638;2024-01-30T05:40:30;101863.78;;;10.34;60.31
28344;BME280;15597;50.914;6.638;2024-01-30T05:42:56;101849.81;;;10.35;60.51
28344;BME280;15597;50.914;6.638;2024-01-30T05:45:23;101855.06;;;10.35;60.54
28344;BME280;15597;50.914;6.638;2024-01-30T05:47:49;101854.19;;;10.35;60.76
28344;BME280;15597;50.914;6.638;2024-01-30T05:50:14;101852.47;;;10.34;60.40
28344;BME280;15597;50.914;6.638;2024-01-30T05:52:40;101848.09;;;10.28;60.54
28344;BME280;15597;50.914;6.638;2024-01-30T05:55:06;101854.19;;;10.27;60.98
28344;BME280;15597;50.914;6.638;2024-01-30T05:57:32;101853.31;;;10.28;61.22
28344;BME280;15597;50.914;6.638;2024-01-30T05:59:58;101860.28;;;10.29;60.58
28344;BME280;15597;50.914;6.638;2024-01-30T06:02:23;101860.28;;;10.26;61.00
28344;BME280;15597;50.914;6.638;2024-01-30T06:04:49;101851.56;;;10.27;60.79
28344;BME280;15597;50.914;6.638;2024-01-30T06:07:15;101845.47;;;10.28;60.40
28344;BME280;15597;50.914;6.638;2024-01-30T06:09:40;101845.47;;;10.28;60.68
28344;BME280;15597;50.914;6.638;2024-01-30T06:12:06;101841.09;;;10.30;60.94
28344;BME280;15597;50.914;6.638;2024-01-30T06:14:32;101842.00;;;10.34;60.56
28344;BME280;15597;50.914;6.638;2024-01-30T06:16:59;101844.59;;;10.38;60.53
28344;BME280;15597;50.914;6.638;2024-01-30T06:19:24;101842.03;;;10.43;60.40
28344;BME280;15597;50.914;6.638;2024-01-30T06:21:50;101844.63;;;10.42;60.51
28344;BME280;15597;50.914;6.638;2024-01-30T06:24:15;101842.00;;;10.42;60.64
28344;BME280;15597;50.914;6.638;2024-01-30T06:26:41;101833.28;;;10.41;60.44
28344;BME280;15597;50.914;6.638;2024-01-30T06:29:06;101826.31;;;10.43;60.74
28344;BME280;15597;50.914;6.638;2024-01-30T06:31:33;101830.69;;;10.41;60.84
28344;BME280;15597;50.914;6.638;2024-01-30T06:33:58;101833.28;;;10.41;60.42
28344;BME280;15597;50.914;6.638;2024-01-30T06:36:24;101829.78;;;10.41;60.27
28344;BME280;15597;50.914;6.638;2024-01-30T06:38:49;101829.78;;;10.39;60.55
28344;BME280;15597;50.914;6.638;2024-01-30T06:41:15;101828.91;;;10.35;60.97
28344;BME280;15597;50.914;6.638;2024-01-30T06:43:41;101834.13;;;10.35;60.59
28344;BME280;15597;50.914;6.638;2024-01-30T06:46:07;101835.00;;;10.34;60.68
28344;BME280;15597;50.914;6.638;2024-01-30T06:48:33;101833.28;;;10.32;60.72
28344;BME280;15597;50.914;6.638;2024-01-30T06:50:58;101842.00;;;10.31;60.46
28344;BME280;15597;50.914;6.638;2024-01-30T06:53:23;101835.03;;;10.30;60.46
28344;BME280;15597;50.914;6.638;2024-01-30T06:55:51;101838.50;;;10.29;60.81
28344;BME280;15597;50.914;6.638;2024-01-30T06:58:18;101837.63;;;10.31;60.49
28344;BME280;15597;50.914;6.638;2024-01-30T07:00:43;101847.22;;;10.34;60.75
28344;BME280;15597;50.914;6.638;2024-01-30T07:03:09;101846.34;;;10.36;61.22
28344;BME280;15597;50.914;6.638;2024-01-30T07:05:34;101847.25;;;10.40;60.55
28344;BME280;15597;50.914;6.638;2024-01-30T07:08:00;101846.38;;;10.43;60.33
28344;BME280;15597;50.914;6.638;2024-01-30T07:10:26;101849.84;;;10.45;60.77
28344;BME280;15597;50.914;6.638;2024-01-30T07:12:51;101853.34;;;10.47;60.69
28344;BME280;15597;50.914;6.638;2024-01-30T07:15:17;101848.97;;;10.49;60.36
28344;BME280;15597;50.914;6.638;2024-01-30T07:17:45;101849.00;;;10.50;60.10
28344;BME280;15597;50.914;6.638;2024-01-30T07:20:11;101852.47;;;10.54;60.29
28344;BME280;15597;50.914;6.638;2024-01-30T07:22:36;101855.94;;;10.56;60.77
28344;BME280;15597;50.914;6.638;2024-01-30T07:25:02;101850.72;;;10.58;60.28
28344;BME280;15597;50.914;6.638;2024-01-30T07:27:28;101851.59;;;10.58;60.76
28344;BME280;15597;50.914;6.638;2024-01-30T07:29:53;101851.59;;;10.60;59.90
28344;BME280;15597;50.914;6.638;2024-01-30T07:32:19;101853.34;;;10.62;60.55
28344;BME280;15597;50.914;6.638;2024-01-30T07:34:45;101859.44;;;10.64;60.63
28344;BME280;15597;50.914;6.638;2024-01-30T07:37:10;101861.19;;;10.67;60.09
28344;BME280;15597;50.914;6.638;2024-01-30T07:39:38;101860.31;;;10.66;60.16
28344;BME280;15597;50.914;6.638;2024-01-30T07:42:03;101869.91;;;10.68;59.80
28344;BME280;15597;50.914;6.638;2024-01-30T07:44:29;101862.94;;;10.68;60.22
28344;BME280;15597;50.914;6.638;2024-01-30T07:46:55;101867.31;;;10.68;59.91
28344;BME280;15597;50.914;6.638;2024-01-30T07:49:20;101874.28;;;10.69;60.28
28344;BME280;15597;50.914;6.638;2024-01-30T07:51:46;101875.13;;;10.72;59.99
28344;BME280;15597;50.914;6.638;2024-01-30T07:54:11;101877.75;;;10.74;60.46
28344;BME280;15597;50.914;6.638;2024-01-30T07:56:38;101887.34;;;10.76;59.82
28344;BME280;15597;50.914;6.638;2024-01-30T07:59:09;101887.34;;;10.78;59.96
28344;BME280;15597;50.914;6.638;2024-01-30T08:01:35;101883.00;;;10.77;60.00
28344;BME280;15597;50.914;6.638;2024-01-30T08:04:00;101885.59;;;10.78;59.57
28344;BME280;15597;50.914;6.638;2024-01-30T08:06:26;101876.88;;;10.79;59.80
28344;BME280;15597;50.914;6.638;2024-01-30T08:08:51;101879.50;;;10.81;60.32
28344;BME280;15597;50.914;6.638;2024-01-30T08:11:21;101886.47;;;10.82;60.15
28344;BME280;15597;50.914;6.638;2024-01-30T08:13:52;101879.50;;;10.84;60.32
28344;BME280;15597;50.914;6.638;2024-01-30T08:16:18;101881.25;;;10.85;59.85
28344;BME280;15597;50.914;6.638;2024-01-30T08:18:43;101883.00;;;10.83;59.78
28344;BME280;15597;50.914;6.638;2024-01-30T08:21:09;101875.09;;;10.85;59.70
28344;BME280;15597;50.914;6.638;2024-01-30T08:23:35;101876.88;;;10.87;60.24
28344;BME280;15597;50.914;6.638;2024-01-30T08:26:00;101887.31;;;10.89;59.88
28344;BME280;15597;50.914;6.638;2024-01-30T08:28:26;101889.94;;;10.92;60.36
28344;BME280;15597;50.914;6.638;2024-01-30T08:30:52;101891.69;;;10.94;60.21
28344;BME280;15597;50.914;6.638;2024-01-30T08:33:17;101894.28;;;10.96;60.14
28344;BME280;15597;50.914;6.638;2024-01-30T08:35:43;101894.28;;;10.96;60.20
28344;BME280;15597;50.914;6.638;2024-01-30T08:38:09;101884.69;;;10.96;60.01
28344;BME280;15597;50.914;6.638;2024-01-30T08:40:35;101889.94;;;11.00;60.36
28344;BME280;15597;50.914;6.638;2024-01-30T08:43:00;101893.41;;;11.02;59.84
28344;BME280;15597;50.914;6.638;2024-01-30T08:45:26;101899.53;;;11.04;60.14
28344;BME280;15597;50.914;6.638;2024-01-30T08:47:51;101907.38;;;11.07;60.07
28344;BME280;15597;50.914;6.638;2024-01-30T08:50:17;101903.00;;;11.07;59.62
28344;BME280;15597;50.914;6.638;2024-01-30T08:52:43;101903.88;;;11.08;59.98
28344;BME280;15597;50.914;6.638;2024-01-30T08:55:08;101891.63;;;11.08;59.95
28344;BME280;15597;50.914;6.638;2024-01-30T08:57:34;101905.63;;;11.09;59.61
28344;BME280;15597;50.914;6.638;2024-01-30T09:00:00;101905.59;;;11.10;59.61
28344;BME280;15597;50.914;6.638;2024-01-30T09:02:25;101909.09;;;11.11;59.78
28344;BME280;15597;50.914;6.638;2024-01-30T09:04:51;101910.84;;;11.10;59.73
28344;BME280;15597;50.914;6.638;2024-01-30T09:07:16;101909.13;;;11.08;59.70
28344;BME280;15597;50.914;6.638;2024-01-30T09:09:42;101914.34;;;11.11;60.04
28344;BME280;15597;50.914;6.638;2024-01-30T09:12:08;101924.84;;;11.16;60.15
28344;BME280;15597;50.914;6.638;2024-01-30T09:14:37;101926.56;;;11.18;59.97
28344;BME280;15597;50.914;6.638;2024-01-30T09:17:03;101934.44;;;11.20;59.78
28344;BME280;15597;50.914;6.638;2024-01-30T09:19:29;101934.44;;;11.20;59.57
28344;BME280;15597;50.914;6.638;2024-01-30T09:21:55;101940.53;;;11.19;59.87
28344;BME280;15597;50.914;6.638;2024-01-30T09:24:20;101942.28;;;11.18;59.77
28344;BME280;15597;50.914;6.638;2024-01-30T09:26:46;101943.16;;;11.19;60.36
28344;BME280;15597;50.914;6.638;2024-01-30T09:29:11;101949.25;;;11.24;60.19
28344;BME280;15597;50.914;6.638;2024-01-30T09:31:37;101952.72;;;11.34;60.31
28344;BME280;15597;50.914;6.638;2024-01-30T09:34:03;101957.06;;;11.46;60.35
28344;BME280;15597;50.914;6.638;2024-01-30T09:36:28;101966.59;;;11.61;60.35
28344;BME280;15597;50.914;6.638;2024-01-30T09:38:54;101966.59;;;11.73;60.18
28344;BME280;15597;50.914;6.638;2024-01-30T09:41:20;101970.03;;;11.81;60.08
28344;BME280;15597;50.914;6.638;2024-01-30T09:43:50;101981.38;;;11.87;59.77
28344;BME280;15597;50.914;6.638;2024-01-30T09:46:17;101979.59;;;11.93;59.59
28344;BME280;15597;50.914;6.638;2024-01-30T09:48:46;101975.19;;;11.95;59.81
28344;BME280;15597;50.914;6.638;2024-01-30T09:51:14;101975.22;;;11.97;59.67
28344;BME280;15597;50.914;6.638;2024-01-30T09:53:40;101982.22;;;12.01;59.72
28344;BME280;15597;50.914;6.638;2024-01-30T09:56:08;101978.69;;;12.05;59.73
28344;BME280;15597;50.914;6.638;2024-01-30T09:58:33;101985.66;;;12.09;59.94
28344;BME280;15597;50.914;6.638;2024-01-30T10:00:59;101979.50;;;12.12;59.47
28344;BME280;15597;50.914;6.638;2024-01-30T10:03:25;101973.41;;;12.15;59.66
28344;BME280;15597;50.914;6.638;2024-01-30T10:05:51;101968.97;;;12.18;59.46
28344;BME280;15597;50.914;6.638;2024-01-30T10:08:20;101977.75;;;12.16;59.44
28344;BME280;15597;50.914;6.638;2024-01-30T10:10:49;101978.66;;;12.11;59.35
28344;BME280;15597;50.914;6.638;2024-01-30T10:13:17;101962.88;;;12.13;59.60
28344;BME280;15597;50.914;6.638;2024-01-30T10:15:43;101970.75;;;12.18;59.76
28344;BME280;15597;50.914;6.638;2024-01-30T10:18:10;101960.25;;;12.22;59.55
28344;BME280;15597;50.914;6.638;2024-01-30T10:20:36;101957.56;;;12.30;59.75
28344;BME280;15597;50.914;6.638;2024-01-30T10:23:02;101966.25;;;12.35;59.86
28344;BME280;15597;50.914;6.638;2024-01-30T10:25:29;101968.84;;;12.41;59.77
28344;BME280;15597;50.914;6.638;2024-01-30T10:27:56;101976.72;;;12.43;59.68
28344;BME280;15597;50.914;6.638;2024-01-30T10:30:22;101974.09;;;12.43;59.58
28344;BME280;15597;50.914;6.638;2024-01-30T10:32:48;101967.09;;;12.42;59.81
28344;BME280;15597;50.914;6.638;2024-01-30T10:35:13;101973.22;;;12.42;59.50
28344;BME280;15597;50.914;6.638;2024-01-30T10:37:39;101964.47;;;12.42;59.30
28344;BME280;15597;50.914;6.638;2024-01-30T10:40:05;101962.72;;;12.39;59.41
28344;BME280;15597;50.914;6.638;2024-01-30T10:42:32;101964.47;;;12.40;60.02
28344;BME280;15597;50.914;6.638;2024-01-30T10:45:05;101963.59;;;12.43;59.33
28344;BME280;15597;50.914;6.638;2024-01-30T10:47:34;101961.84;;;12.45;59.63
28344;BME280;15597;50.914;6.638;2024-01-30T10:50:01;101959.22;;;12.40;59.74
28344;BME280;15597;50.914;6.638;2024-01-30T10:52:29;101957.47;;;12.42;59.47
28344;BME280;15597;50.914;6.638;2024-01-30T10:54:55;101957.44;;;12.46;59.70
28344;BME280;15597;50.914;6.638;2024-01-30T10:57:25;101962.63;;;12.52;59.66
28344;BME280;15597;50.914;6.638;2024-01-30T10:59:53;101962.59;;;12.58;60.09
28344;BME280;15597;50.914;6.638;2024-01-30T11:02:21;101967.78;;;12.67;59.68
28344;BME280;15597;50.914;6.638;2024-01-30T11:04:49;101966.00;;;12.73;59.82
28344;BME280;15597;50.914;6.638;2024-01-30T11:07:18;101961.63;;;12.75;59.46
28344;BME280;15597;50.914;6.638;2024-01-30T11:10:05;101962.50;;;12.74;59.83
28344;BME280;15597;50.914;6.638;2024-01-30T11:12:33;101965.94;;;12.79;59.73
28344;BME280;15597;50.914;6.638;2024-01-30T11:15:07;101973.81;;;12.82;59.80
28344;BME280;15597;50.914;6.638;2024-01-30T11:17:51;101976.34;;;12.91;60.24
28344;BME280;15597;50.914;6.638;2024-01-30T11:20:19;101966.63;;;12.99;60.13
28344;BME280;15597;50.914;6.638;2024-01-30T11:22:46;101968.28;;;13.10;60.04
28344;BME280;15597;50.914;6.638;2024-01-30T11:25:16;101967.34;;;13.17;59.69
28344;BME280;15597;50.914;6.638;2024-01-30T11:27:46;101970.72;;;13.28;59.73
28344;BME280;15597;50.914;6.638;2024-01-30T11:33:07;101968.91;;;13.34;59.49
28344;BME280;15597;50.914;6.638;2024-01-30T11:35:44;101964.47;;;13.40;59.62
28344;BME280;15597;50.914;6.638;2024-01-30T11:38:13;101967.03;;;13.48;59.65
28344;BME280;15597;50.914;6.638;2024-01-30T11:40:39;101960.84;;;13.52;59.49
28344;BME280;15597;50.914;6.638;2024-01-30T11:43:06;101959.06;;;13.56;59.78
28344;BME280;15597;50.914;6.638;2024-01-30T11:45:33;101961.63;;;13.61;59.27
28344;BME280;15597;50.914;6.638;2024-01-30T11:47:59;101963.31;;;13.65;59.56
28344;BME280;15597;50.914;6.638;2024-01-30T11:50:26;101959.75;;;13.69;59.32
28344;BME280;15597;50.914;6.638;2024-01-30T11:52:54;101956.28;;;13.67;59.01
28344;BME280;15597;50.914;6.638;2024-01-30T11:55:21;101965.09;;;13.63;59.13
28344;BME280;15597;50.914;6.638;2024-01-30T11:57:46;101973.91;;;13.58;59.13
28344;BME280;15597;50.914;6.638;2024-01-30T12:00:16;101970.44;;;13.56;59.33
28344;BME280;15597;50.914;6.638;2024-01-30T12:02:42;101965.16;;;13.59;59.13
28344;BME280;15597;50.914;6.638;2024-01-30T12:05:08;101963.41;;;13.58;59.15
28344;BME280;15597;50.914;6.638;2024-01-30T12:07:37;101967.81;;;13.56;59.04
28344;BME280;15597;50.914;6.638;2024-01-30T12:10:03;101966.09;;;13.52;58.92
28344;BME280;15597;50.914;6.638;2024-01-30T12:12:29;101975.72;;;13.53;58.69
28344;BME280;15597;50.914;6.638;2024-01-30T12:14:56;101978.44;;;13.49;58.69
28344;BME280;15597;50.914;6.638;2024-01-30T12:17:28;101979.34;;;13.43;58.89
28344;BME280;15597;50.914;6.638;2024-01-30T12:22:29;101968.88;;;13.37;59.27
28344;BME280;15597;50.914;6.638;2024-01-30T12:24:55;101979.44;;;13.34;59.02
28344;BME280;15597;50.914;6.638;2024-01-30T12:27:21;101970.72;;;13.28;58.48
28344;BME280;15597;50.914;6.638;2024-01-30T12:29:46;101969.91;;;13.22;59.16
28344;BME280;15597;50.914;6.638;2024-01-30T12:32:15;101968.16;;;13.22;59.20
28344;BME280;15597;50.914;6.638;2024-01-30T12:34:42;101968.94;;;13.30;58.93
28344;BME280;15597;50.914;6.638;2024-01-30T12:37:07;101990.00;;;13.27;59.08
28344;BME280;15597;50.914;6.638;2024-01-30T12:39:35;101976.88;;;13.27;58.75
28344;BME280;15597;50.914;6.638;2024-01-30T12:42:00;101980.41;;;13.22;58.94
28344;BME280;15597;50.914;6.638;2024-01-30T12:44:26;101981.38;;;13.16;59.15
28344;BME280;15597;50.914;6.638;2024-01-30T12:46:52;101972.63;;;13.14;59.87
28344;BME280;15597;50.914;6.638;2024-01-30T12:49:17;101976.13;;;13.13;59.18
28344;BME280;15597;50.914;6.638;2024-01-30T12:51:43;101984.03;;;13.13;59.57